Time;durP1;ratioP1;P1;durP2;ratioP2;P2;SDS_P1;SDS_P2;PMS_P1;PMS_P2;Temp;Humidity;BMP_temperature;BMP_pressure;BME280_temperature;BME280_humidity;BME280_pressure;Samples;Min_cycle;Max_cycle;Signal;HPM_P1;HPM_P2
2023/07/18 00:00:10;;;;;;;8.40;3.50;;;15.80;99.90;;;;;;5088340;28;20047;-76
2023/07/18 00:02:36;;;;;;;6.68;3.30;;;15.80;99.90;;;;;;5085326;28;20032;-76
2023/07/18 00:05:01;;;;;;;9.10;3.70;;;15.80;99.90;;;;;;5075231;28;20043;-76
2023/07/18 00:07:27;;;;;;;9.60;3.92;;;15.70;99.90;;;;;;5090024;28;20032;-75
2023/07/18 00:09:52;;;;;;;10.10;3.25;;;15.80;99.90;;;;;;5086077;28;20043;-75
2023/07/18 00:12:17;;;;;;;10.23;3.88;;;15.70;99.90;;;;;;5080271;28;20055;-76
2023/07/18 00:14:43;;;;;;;8.18;3.80;;;15.70;99.90;;;;;;5089712;28;20518;-77
2023/07/18 00:17:09;;;;;;;10.85;3.80;;;15.60;99.90;;;;;;5083632;28;20051;-76
2023/07/18 00:19:34;;;;;;;10.65;3.88;;;15.50;99.90;;;;;;5066684;28;20090;-76
2023/07/18 00:22:00;;;;;;;9.35;3.70;;;15.50;99.90;;;;;;5086740;28;20050;-76
2023/07/18 00:24:25;;;;;;;9.80;3.53;;;15.50;99.90;;;;;;5086724;28;20120;-77
2023/07/18 00:26:51;;;;;;;9.82;3.65;;;15.50;99.90;;;;;;5090600;28;20047;-76
2023/07/18 00:29:17;;;;;;;10.38;3.88;;;15.40;99.90;;;;;;5085337;28;20138;-76
2023/07/18 00:31:42;;;;;;;8.25;3.78;;;15.40;99.90;;;;;;5091914;28;20040;-75
2023/07/18 00:34:08;;;;;;;13.63;4.18;;;15.50;99.90;;;;;;5088943;28;20104;-76
2023/07/18 00:36:33;;;;;;;12.88;3.65;;;15.50;99.90;;;;;;5073234;28;20055;-76
2023/07/18 00:38:59;;;;;;;8.93;3.53;;;15.40;99.90;;;;;;5067334;28;20028;-76
2023/07/18 00:41:24;;;;;;;8.10;3.63;;;15.40;99.90;;;;;;5081655;28;20037;-76
2023/07/18 00:43:50;;;;;;;8.30;3.30;;;15.40;99.90;;;;;;5089567;28;20028;-76
2023/07/18 00:46:16;;;;;;;9.45;3.55;;;15.40;99.90;;;;;;5089450;28;20044;-76
2023/07/18 00:48:41;;;;;;;7.82;3.30;;;15.40;99.90;;;;;;5082003;28;20387;-76
2023/07/18 00:51:07;;;;;;;5.80;3.17;;;15.30;99.90;;;;;;5089344;28;20471;-77
2023/07/18 00:53:35;;;;;;;8.35;3.42;;;15.30;99.90;;;;;;5089137;28;20043;-77
2023/07/18 00:56:01;;;;;;;9.35;3.33;;;15.30;99.90;;;;;;5090420;28;20040;-77
2023/07/18 00:58:29;;;;;;;10.23;3.58;;;15.30;99.90;;;;;;5069850;28;20113;-77
2023/07/18 01:00:54;;;;;;;13.30;3.72;;;15.30;99.90;;;;;;5089264;28;20375;-77
2023/07/18 01:03:20;;;;;;;10.57;3.83;;;15.30;99.90;;;;;;5087430;28;20089;-76
2023/07/18 01:05:46;;;;;;;6.85;2.92;;;15.30;99.90;;;;;;5084917;28;20112;-76
2023/07/18 01:08:11;;;;;;;8.75;3.72;;;15.30;99.90;;;;;;5072166;28;20181;-76
2023/07/18 01:10:38;;;;;;;8.88;3.67;;;15.30;99.90;;;;;;5068637;28;20082;-75
2023/07/18 01:13:04;;;;;;;7.75;3.40;;;15.20;99.90;;;;;;5080122;28;20132;-76
2023/07/18 01:15:32;;;;;;;10.25;3.50;;;15.20;99.90;;;;;;5088065;28;20469;-76
2023/07/18 01:17:58;;;;;;;9.68;3.90;;;15.20;99.90;;;;;;5081246;28;20058;-76
2023/07/18 01:20:27;;;;;;;7.72;3.40;;;15.20;99.90;;;;;;5064932;28;20032;-76
2023/07/18 01:22:54;;;;;;;7.47;3.47;;;15.10;99.90;;;;;;5081473;28;20085;-78
2023/07/18 01:25:21;;;;;;;7.80;3.22;;;15.10;99.90;;;;;;5088836;28;20058;-76
2023/07/18 01:27:48;;;;;;;9.13;4.10;;;15.10;99.90;;;;;;5089389;28;20051;-76
2023/07/18 01:30:14;;;;;;;8.20;3.47;;;15.00;99.90;;;;;;5089059;28;20625;-76
2023/07/18 01:32:42;;;;;;;9.48;3.60;;;15.00;99.90;;;;;;5089125;28;20036;-76
2023/07/18 01:35:08;;;;;;;8.25;3.50;;;15.00;99.90;;;;;;5071417;28;20441;-76
2023/07/18 01:37:35;;;;;;;8.57;3.63;;;15.00;99.90;;;;;;5087830;28;20032;-76
2023/07/18 01:40:00;;;;;;;12.05;3.70;;;14.90;99.90;;;;;;5088452;28;20032;-77
2023/07/18 01:42:26;;;;;;;9.10;3.78;;;14.90;99.90;;;;;;5063441;28;20036;-76
2023/07/18 01:44:52;;;;;;;9.50;3.47;;;14.90;99.90;;;;;;5072002;28;20089;-75
2023/07/18 01:47:17;;;;;;;10.43;3.88;;;14.90;99.90;;;;;;5070585;28;20040;-76
2023/07/18 01:49:43;;;;;;;14.45;3.90;;;14.90;99.90;;;;;;5081206;28;20039;-76
2023/07/18 01:52:10;;;;;;;8.65;3.80;;;14.90;99.90;;;;;;5088512;28;20466;-76
2023/07/18 01:54:36;;;;;;;9.40;3.90;;;14.90;99.90;;;;;;5088509;28;20040;-76
2023/07/18 01:57:01;;;;;;;9.60;3.90;;;14.90;99.90;;;;;;5064814;28;20101;-76
2023/07/18 01:59:27;;;;;;;7.57;3.60;;;14.80;99.90;;;;;;5082249;28;20059;-76
2023/07/18 02:01:52;;;;;;;9.73;4.00;;;14.80;99.90;;;;;;5086426;28;20040;-76
2023/07/18 02:04:18;;;;;;;10.23;3.63;;;14.80;99.90;;;;;;5088717;28;20502;-76
2023/07/18 02:06:43;;;;;;;11.57;4.35;;;14.80;99.90;;;;;;5084141;28;20048;-78
2023/07/18 02:09:10;;;;;;;9.70;4.20;;;14.80;99.90;;;;;;5089253;28;20040;-78
2023/07/18 02:11:35;;;;;;;9.05;3.88;;;14.80;99.90;;;;;;5088872;28;20406;-77
2023/07/18 02:14:03;;;;;;;9.63;4.15;;;14.70;99.90;;;;;;5088441;28;20052;-77
2023/07/18 02:16:29;;;;;;;9.13;3.80;;;14.70;99.90;;;;;;5086151;28;20044;-76
2023/07/18 02:18:59;;;;;;;9.57;4.20;;;14.60;99.90;;;;;;5089288;28;20032;-76
2023/07/18 02:21:25;;;;;;;10.35;3.53;;;14.60;99.90;;;;;;5088357;28;20096;-76
2023/07/18 02:23:51;;;;;;;13.00;3.80;;;14.60;99.90;;;;;;5083456;28;20044;-76
2023/07/18 02:26:16;;;;;;;9.38;3.78;;;14.60;99.90;;;;;;5086551;28;20127;-77
2023/07/18 02:28:42;;;;;;;12.35;4.10;;;14.50;99.90;;;;;;5067656;28;20124;-77
2023/07/18 02:31:07;;;;;;;9.25;4.00;;;14.50;99.90;;;;;;5089201;28;20518;-77
2023/07/18 02:33:33;;;;;;;10.68;4.50;;;14.50;99.90;;;;;;5088913;28;20719;-76
2023/07/18 02:35:59;;;;;;;11.35;3.72;;;14.60;99.90;;;;;;5070761;28;20071;-76
2023/07/18 02:38:24;;;;;;;10.68;4.30;;;14.60;99.90;;;;;;5085018;28;20133;-77
2023/07/18 02:40:50;;;;;;;9.98;4.10;;;14.60;99.90;;;;;;5072385;28;20040;-76
2023/07/18 02:43:15;;;;;;;10.32;4.10;;;14.50;99.90;;;;;;5085589;28;20058;-76
2023/07/18 02:45:41;;;;;;;12.27;4.55;;;14.50;99.90;;;;;;5085913;28;20032;-76
2023/07/18 02:48:06;;;;;;;14.70;4.40;;;14.50;99.90;;;;;;5089360;28;20055;-77
2023/07/18 02:50:32;;;;;;;10.15;3.50;;;14.50;99.90;;;;;;5084877;28;20051;-77
2023/07/18 02:52:58;;;;;;;7.43;3.50;;;14.40;99.90;;;;;;5088097;28;20050;-77
2023/07/18 02:55:24;;;;;;;9.18;4.03;;;14.40;99.90;;;;;;5070725;28;20093;-76
2023/07/18 02:57:51;;;;;;;9.63;3.95;;;14.40;99.90;;;;;;5070943;28;20040;-78
2023/07/18 03:00:19;;;;;;;8.43;3.92;;;14.40;99.90;;;;;;5087145;28;20047;-77
2023/07/18 03:02:48;;;;;;;8.02;4.20;;;14.40;99.90;;;;;;5066514;28;20524;-77
2023/07/18 03:05:17;;;;;;;10.60;3.95;;;14.30;99.90;;;;;;5071034;28;20534;-77
2023/07/18 03:07:44;;;;;;;7.72;3.78;;;14.30;99.90;;;;;;5087842;28;20094;-77
2023/07/18 03:10:10;;;;;;;16.15;4.80;;;14.30;99.90;;;;;;5088032;28;20387;-78
2023/07/18 03:12:36;;;;;;;9.70;3.83;;;14.20;99.90;;;;;;5089003;28;20422;-77
2023/07/18 03:15:02;;;;;;;11.77;4.40;;;14.20;99.90;;;;;;5079352;28;20042;-77
2023/07/18 03:17:27;;;;;;;11.23;4.07;;;14.30;99.90;;;;;;5061895;28;20109;-77
2023/07/18 03:19:53;;;;;;;10.50;3.58;;;14.30;99.90;;;;;;5087706;28;20486;-77
2023/07/18 03:22:19;;;;;;;11.02;4.10;;;14.30;99.90;;;;;;5064889;28;20028;-76
2023/07/18 03:24:47;;;;;;;10.77;3.53;;;14.30;99.90;;;;;;5087542;28;20062;-77
2023/07/18 03:27:13;;;;;;;12.75;3.88;;;14.30;99.90;;;;;;5067156;28;20479;-79
2023/07/18 03:29:38;;;;;;;11.68;3.70;;;14.30;99.90;;;;;;5083469;28;20072;-77
2023/07/18 03:32:04;;;;;;;11.07;4.18;;;14.30;99.90;;;;;;5081465;28;20130;-77
2023/07/18 03:34:30;;;;;;;8.63;3.90;;;14.30;99.90;;;;;;5078873;28;20028;-77
2023/07/18 03:36:55;;;;;;;8.80;3.83;;;14.30;99.90;;;;;;5086335;28;20036;-77
2023/07/18 03:39:21;;;;;;;13.13;3.97;;;14.30;99.90;;;;;;5087634;28;20514;-77
2023/07/18 03:41:46;;;;;;;11.50;4.25;;;14.30;99.90;;;;;;5079077;28;20040;-77
2023/07/18 03:44:12;;;;;;;10.38;3.50;;;14.30;99.90;;;;;;5087669;28;20585;-76
2023/07/18 03:46:37;;;;;;;8.63;3.55;;;14.30;99.90;;;;;;5091643;28;20040;-77
2023/07/18 03:49:03;;;;;;;10.05;3.70;;;14.30;99.90;;;;;;5088440;28;20044;-77
2023/07/18 03:51:29;;;;;;;12.10;3.80;;;14.30;99.90;;;;;;5067978;28;20059;-77
2023/07/18 03:53:55;;;;;;;10.13;4.20;;;14.30;99.90;;;;;;5086907;28;20063;-77
2023/07/18 03:56:20;;;;;;;11.50;4.40;;;14.30;99.90;;;;;;5089758;28;20437;-77
2023/07/18 03:58:46;;;;;;;10.75;3.80;;;14.20;99.90;;;;;;5091236;28;20036;-77
2023/07/18 04:01:12;;;;;;;9.60;3.95;;;14.30;99.90;;;;;;5074737;28;20036;-77
2023/07/18 04:03:38;;;;;;;11.77;4.10;;;14.20;99.90;;;;;;5087312;28;20028;-76
2023/07/18 04:06:04;;;;;;;10.23;3.92;;;14.30;99.90;;;;;;5086720;28;20035;-77
2023/07/18 04:08:30;;;;;;;9.07;3.55;;;14.30;99.90;;;;;;5085500;28;20044;-77
2023/07/18 04:10:57;;;;;;;14.10;3.90;;;14.40;99.90;;;;;;5082218;28;20414;-77
2023/07/18 04:13:22;;;;;;;10.35;4.05;;;14.30;99.90;;;;;;5090482;28;20160;-77
2023/07/18 04:15:48;;;;;;;10.07;3.88;;;14.30;99.90;;;;;;5073198;28;20514;-77
2023/07/18 04:18:14;;;;;;;12.55;4.35;;;14.40;99.90;;;;;;5087616;28;20134;-77
2023/07/18 04:20:39;;;;;;;12.15;3.80;;;14.40;99.90;;;;;;5088468;28;20076;-77
2023/07/18 04:23:05;;;;;;;8.23;3.67;;;14.50;99.90;;;;;;5090064;28;20035;-77
2023/07/18 04:25:35;;;;;;;9.25;3.50;;;14.50;99.90;;;;;;5069452;28;20036;-77
2023/07/18 04:28:02;;;;;;;7.00;3.28;;;14.50;99.90;;;;;;5067795;28;20616;-77
2023/07/18 04:30:28;;;;;;;10.82;3.90;;;14.60;99.90;;;;;;5080673;28;20048;-78
2023/07/18 04:32:54;;;;;;;11.15;4.05;;;14.60;99.90;;;;;;5089390;28;20506;-77
2023/07/18 04:35:19;;;;;;;10.73;3.80;;;14.70;99.90;;;;;;5087872;28;20047;-77
2023/07/18 04:37:45;;;;;;;10.80;4.10;;;14.90;99.90;;;;;;5087002;28;20044;-77
2023/07/18 04:40:11;;;;;;;8.00;3.55;;;14.70;99.90;;;;;;5086919;28;20151;-76
2023/07/18 04:42:37;;;;;;;13.25;3.95;;;14.80;99.90;;;;;;5084687;28;20486;-77
2023/07/18 04:45:06;;;;;;;11.50;3.72;;;14.80;99.90;;;;;;5090071;28;20074;-77
2023/07/18 04:47:31;;;;;;;14.55;4.15;;;14.80;99.90;;;;;;5086273;28;20050;-77
2023/07/18 04:49:57;;;;;;;7.80;3.58;;;14.80;99.90;;;;;;5085716;28;20041;-77
2023/07/18 04:52:23;;;;;;;13.05;3.85;;;14.80;99.90;;;;;;5063257;28;20116;-77
2023/07/18 04:54:48;;;;;;;14.82;3.92;;;14.80;99.90;;;;;;5089812;28;20032;-77
2023/07/18 04:57:14;;;;;;;11.25;4.78;;;14.80;99.90;;;;;;5088552;28;20093;-78
2023/07/18 04:59:41;;;;;;;9.35;4.18;;;14.80;99.90;;;;;;5089239;28;20055;-77
2023/07/18 05:02:07;;;;;;;11.68;4.13;;;14.90;99.90;;;;;;5084967;28;20036;-77
2023/07/18 05:04:32;;;;;;;9.93;4.50;;;14.90;99.90;;;;;;5068049;28;21730;-78
2023/07/18 05:06:58;;;;;;;8.75;4.20;;;14.90;99.90;;;;;;5086385;28;20048;-77
2023/07/18 05:09:25;;;;;;;14.15;4.20;;;14.90;99.90;;;;;;5068299;28;20059;-77
2023/07/18 05:11:50;;;;;;;10.00;3.90;;;14.90;99.90;;;;;;5088810;28;20085;-77
2023/07/18 05:14:16;;;;;;;9.00;4.32;;;15.00;99.90;;;;;;5089930;28;20465;-77
2023/07/18 05:16:42;;;;;;;7.88;3.78;;;15.00;99.90;;;;;;5083346;28;20453;-76
2023/07/18 05:19:07;;;;;;;13.63;4.68;;;15.10;99.90;;;;;;5089543;28;20047;-77
2023/07/18 05:21:33;;;;;;;8.63;3.83;;;15.10;99.90;;;;;;5081772;28;20130;-77
2023/07/18 05:23:58;;;;;;;10.48;4.40;;;15.10;99.90;;;;;;5070126;28;20495;-78
2023/07/18 05:26:24;;;;;;;14.13;4.75;;;15.20;99.90;;;;;;5100432;28;20037;-79
2023/07/18 05:28:51;;;;;;;11.30;4.60;;;15.30;99.90;;;;;;5089646;28;20046;-75
2023/07/18 05:31:16;;;;;;;12.00;4.45;;;15.40;99.90;;;;;;5088120;28;20110;-76
2023/07/18 05:33:42;;;;;;;10.48;4.35;;;15.40;99.90;;;;;;5086427;28;20162;-77
2023/07/18 05:36:07;;;;;;;10.15;4.53;;;15.50;99.90;;;;;;5083114;28;20181;-76
2023/07/18 05:38:33;;;;;;;9.85;4.00;;;15.50;99.90;;;;;;5086329;28;20517;-77
2023/07/18 05:40:58;;;;;;;9.63;4.50;;;15.40;99.90;;;;;;5090149;28;20434;-77
2023/07/18 05:43:24;;;;;;;7.63;4.47;;;15.50;99.90;;;;;;5067051;28;20032;-77
2023/07/18 05:45:50;;;;;;;13.80;5.00;;;15.50;99.90;;;;;;5082979;28;20380;-76
2023/07/18 05:48:15;;;;;;;11.55;4.45;;;15.60;99.90;;;;;;5070764;28;20036;-77
2023/07/18 05:50:41;;;;;;;14.65;4.50;;;15.60;99.90;;;;;;5086426;28;20040;-76
2023/07/18 05:53:06;;;;;;;12.15;5.00;;;15.60;99.90;;;;;;5084335;28;20039;-76
2023/07/18 05:55:32;;;;;;;10.68;4.88;;;15.70;99.90;;;;;;5087429;28;20119;-77
2023/07/18 05:57:58;;;;;;;12.20;4.72;;;15.80;99.90;;;;;;5076705;28;20036;-76
2023/07/18 06:00:23;;;;;;;12.48;4.55;;;15.80;99.90;;;;;;5086704;28;20454;-77
2023/07/18 06:02:49;;;;;;;16.67;4.50;;;15.90;99.90;;;;;;5085251;28;20039;-78
2023/07/18 06:05:15;;;;;;;12.82;4.57;;;16.00;99.90;;;;;;5062768;28;20036;-79
2023/07/18 06:07:40;;;;;;;15.40;4.88;;;16.10;99.90;;;;;;5064482;28;20040;-77
2023/07/18 06:10:07;;;;;;;13.02;4.45;;;16.10;99.90;;;;;;5088595;28;20039;-76
2023/07/18 06:12:32;;;;;;;14.13;5.10;;;16.10;99.90;;;;;;5094567;28;20071;-76
2023/07/18 06:14:58;;;;;;;14.85;5.70;;;16.20;99.90;;;;;;5081229;28;20067;-77
2023/07/18 06:17:24;;;;;;;13.93;4.93;;;16.20;99.90;;;;;;5074378;28;20094;-76
2023/07/18 06:19:49;;;;;;;16.80;5.20;;;16.30;99.90;;;;;;5080643;28;20051;-76
2023/07/18 06:22:15;;;;;;;11.43;4.55;;;16.40;99.90;;;;;;5083696;28;20066;-80
2023/07/18 06:24:41;;;;;;;14.10;4.70;;;16.50;99.90;;;;;;5076439;28;20658;-76
2023/07/18 06:27:07;;;;;;;12.23;4.57;;;16.60;99.90;;;;;;5089857;28;20055;-76
2023/07/18 06:29:32;;;;;;;13.13;4.63;;;16.80;99.90;;;;;;5073228;28;20032;-75
2023/07/18 06:32:00;;;;;;;15.00;4.53;;;17.10;99.90;;;;;;5071565;28;20414;-77
2023/07/18 06:34:25;;;;;;;12.32;4.68;;;17.30;99.90;;;;;;5088167;28;20044;-76
2023/07/18 06:36:53;;;;;;;13.15;4.43;;;17.30;99.90;;;;;;5071367;28;20410;-77
2023/07/18 06:39:18;;;;;;;16.58;4.63;;;17.40;99.90;;;;;;5071398;28;20101;-76
2023/07/18 06:41:44;;;;;;;12.35;4.45;;;17.30;99.90;;;;;;5088578;28;20482;-78
2023/07/18 06:44:12;;;;;;;12.48;4.43;;;17.40;99.90;;;;;;5087934;28;20062;-77
2023/07/18 06:46:37;;;;;;;10.60;4.40;;;17.30;99.90;;;;;;5088290;28;20510;-77
2023/07/18 06:49:03;;;;;;;11.52;4.63;;;17.30;99.90;;;;;;5082154;28;20102;-77
2023/07/18 06:51:29;;;;;;;12.48;4.68;;;17.40;99.90;;;;;;5077970;28;20475;-80
2023/07/18 06:53:54;;;;;;;13.45;4.80;;;17.40;99.90;;;;;;5062341;28;20406;-76
2023/07/18 06:56:20;;;;;;;15.05;4.57;;;17.50;99.90;;;;;;5079413;28;20041;-77
2023/07/18 06:58:46;;;;;;;16.33;5.03;;;17.50;99.90;;;;;;5086158;28;20508;-77
2023/07/18 07:01:11;;;;;;;14.05;4.90;;;17.40;99.90;;;;;;5088009;28;20036;-77
2023/07/18 07:03:37;;;;;;;11.02;4.70;;;17.40;99.90;;;;;;5079470;28;20384;-77
2023/07/18 07:06:10;;;;;;;15.35;4.60;;;17.40;99.90;;;;;;5052693;28;20514;-81
2023/07/18 07:08:35;;;;;;;10.57;4.63;;;17.40;99.90;;;;;;5078605;28;20128;-77
2023/07/18 07:11:08;;;;;;;14.75;4.65;;;17.40;99.90;;;;;;5081204;28;20381;-77
2023/07/18 07:13:37;;;;;;;14.25;4.43;;;17.60;99.90;;;;;;5063322;28;20032;-77
2023/07/18 07:16:07;;;;;;;17.00;4.90;;;17.70;99.90;;;;;;5086945;28;20063;-77
2023/07/18 07:18:32;;;;;;;21.10;4.63;;;17.90;99.90;;;;;;5080936;28;20036;-77
2023/07/18 07:20:59;;;;;;;17.58;4.60;;;18.00;99.90;;;;;;5091847;28;20472;-77
2023/07/18 07:23:25;;;;;;;21.02;4.50;;;18.10;99.90;;;;;;5093081;28;20165;-79
2023/07/18 07:25:51;;;;;;;15.23;4.55;;;18.10;99.90;;;;;;5092638;28;20119;-80
2023/07/18 07:28:16;;;;;;;11.07;4.60;;;18.20;99.90;;;;;;5077557;28;20040;-78
2023/07/18 07:30:42;;;;;;;13.88;5.53;;;18.30;99.90;;;;;;5081743;28;20040;-76
2023/07/18 07:33:07;;;;;;;15.57;5.05;;;18.50;99.90;;;;;;5084662;28;20036;-77
2023/07/18 07:35:33;;;;;;;18.13;4.97;;;18.80;99.90;;;;;;5084822;28;20490;-78
2023/07/18 07:37:59;;;;;;;12.60;5.20;;;18.90;99.90;;;;;;5092671;28;20036;-77
2023/07/18 07:40:24;;;;;;;16.63;4.95;;;19.10;99.90;;;;;;5092804;28;20048;-77
2023/07/18 07:42:50;;;;;;;15.30;5.53;;;19.20;99.90;;;;;;5091482;28;20044;-78
2023/07/18 07:45:16;;;;;;;16.70;5.50;;;19.30;99.90;;;;;;5094609;28;20493;-78
2023/07/18 07:47:42;;;;;;;13.43;4.95;;;19.60;99.90;;;;;;5093333;28;20040;-78
2023/07/18 07:50:09;;;;;;;13.45;4.70;;;19.90;99.90;;;;;;5077220;28;20044;-79
2023/07/18 07:52:35;;;;;;;14.32;5.05;;;20.10;99.90;;;;;;5093442;28;20066;-78
2023/07/18 07:55:01;;;;;;;11.85;4.28;;;20.40;99.90;;;;;;5093184;28;20040;-78
2023/07/18 07:57:28;;;;;;;13.60;4.80;;;20.60;99.90;;;;;;5091128;28;20048;-77
2023/07/18 07:59:53;;;;;;;11.52;4.88;;;20.70;99.90;;;;;;5086208;28;20115;-80
2023/07/18 08:02:19;;;;;;;13.95;4.53;;;20.60;99.90;;;;;;5084040;28;20571;-77
2023/07/18 08:04:48;;;;;;;12.95;4.40;;;20.50;99.90;;;;;;5083525;28;20039;-77
2023/07/18 08:07:15;;;;;;;13.55;4.40;;;20.50;99.90;;;;;;5092466;28;20096;-78
2023/07/18 08:09:40;;;;;;;13.02;4.38;;;20.50;99.90;;;;;;5081271;28;20047;-78
2023/07/18 08:12:06;;;;;;;10.90;3.88;;;20.60;99.90;;;;;;5086677;28;20032;-81
2023/07/18 08:14:33;;;;;;;10.73;4.00;;;20.50;99.90;;;;;;5090649;28;20177;-77
2023/07/18 08:16:59;;;;;;;9.88;3.88;;;20.60;99.90;;;;;;5092433;28;20040;-77
2023/07/18 08:19:25;;;;;;;12.38;3.88;;;20.50;99.90;;;;;;5086082;28;20029;-77
2023/07/18 08:21:51;;;;;;;10.05;3.67;;;20.50;99.90;;;;;;5084364;28;20043;-77
2023/07/18 08:24:17;;;;;;;9.77;3.58;;;20.30;99.90;;;;;;5090184;28;20051;-78
2023/07/18 08:26:43;;;;;;;9.07;3.60;;;20.40;99.90;;;;;;5083376;28;20130;-78
2023/07/18 08:29:08;;;;;;;13.70;4.10;;;20.50;99.90;;;;;;5082149;28;20040;-78
2023/07/18 08:31:34;;;;;;;14.45;3.92;;;20.70;99.90;;;;;;5087308;28;20044;-79
2023/07/18 08:33:59;;;;;;;10.15;3.35;;;21.00;99.90;;;;;;5089608;28;20048;-77
2023/07/18 08:36:25;;;;;;;12.35;2.83;;;21.00;99.90;;;;;;5089095;28;20040;-78
2023/07/18 08:38:51;;;;;;;10.00;2.90;;;21.20;99.90;;;;;;5082766;28;20040;-78
2023/07/18 08:41:21;;;;;;;11.10;3.20;;;21.40;99.90;;;;;;5091093;28;20035;-77
2023/07/18 08:43:48;;;;;;;7.68;2.80;;;21.50;99.90;;;;;;5083929;28;20086;-77
2023/07/18 08:46:14;;;;;;;7.65;2.67;;;21.50;99.90;;;;;;5091723;28;20087;-78
2023/07/18 08:48:42;;;;;;;6.75;2.47;;;21.60;99.90;;;;;;5067098;28;20402;-77
2023/07/18 08:51:08;;;;;;;7.25;2.60;;;21.60;99.90;;;;;;5087317;28;20083;-77
2023/07/18 08:53:34;;;;;;;7.88;2.72;;;21.70;99.90;;;;;;5085230;28;20067;-77
2023/07/18 08:56:02;;;;;;;10.25;2.85;;;21.80;99.90;;;;;;5091498;28;20064;-76
2023/07/18 08:58:28;;;;;;;11.05;2.28;;;22.00;99.90;;;;;;5091418;28;20048;-78
2023/07/18 09:00:53;;;;;;;11.15;2.72;;;22.30;99.90;;;;;;5090882;28;20086;-78
2023/07/18 09:03:19;;;;;;;7.55;2.92;;;22.40;99.90;;;;;;5090854;28;20400;-81
2023/07/18 09:05:44;;;;;;;8.85;2.53;;;22.40;99.90;;;;;;5075511;28;20044;-79
2023/07/18 09:08:10;;;;;;;7.22;2.25;;;22.30;99.90;;;;;;5091785;28;20075;-77
2023/07/18 09:10:35;;;;;;;8.07;2.03;;;22.20;99.90;;;;;;5090325;28;20037;-77
2023/07/18 09:13:03;;;;;;;6.25;2.00;;;22.00;99.90;;;;;;5091699;28;20032;-77
2023/07/18 09:15:31;;;;;;;5.22;1.98;;;21.90;99.90;;;;;;5090799;28;20040;-79
2023/07/18 09:17:59;;;;;;;7.60;2.03;;;21.80;99.90;;;;;;5086038;28;20131;-79
2023/07/18 09:20:26;;;;;;;9.25;2.60;;;21.60;99.90;;;;;;5074323;28;20110;-80
2023/07/18 09:23:02;;;;;;;6.95;2.13;;;21.40;99.90;;;;;;5086392;28;20048;-80
2023/07/18 09:25:29;;;;;;;8.32;2.30;;;21.40;99.90;;;;;;5084765;28;20115;-78
2023/07/18 09:27:57;;;;;;;6.47;2.42;;;21.50;99.90;;;;;;5091949;28;20178;-79
2023/07/18 09:30:34;;;;;;;7.82;2.38;;;21.60;99.90;;;;;;5091037;28;20043;-79
2023/07/18 09:33:02;;;;;;;6.70;2.42;;;21.80;99.90;;;;;;5090927;28;20121;-82
2023/07/18 09:35:28;;;;;;;9.55;2.58;;;22.00;99.90;;;;;;5079650;28;20070;-77
2023/07/18 09:37:55;;;;;;;8.30;2.20;;;22.20;99.90;;;;;;5091416;28;20063;-79
2023/07/18 09:40:20;;;;;;;6.68;2.20;;;22.10;99.90;;;;;;5075087;28;20047;-80
2023/07/18 09:42:49;;;;;;;4.63;1.95;;;21.90;99.90;;;;;;5095038;28;20415;-78
2023/07/18 09:45:16;;;;;;;7.15;2.33;;;21.70;99.90;;;;;;5090112;28;20040;-79
2023/07/18 09:47:43;;;;;;;8.57;2.83;;;21.60;99.90;;;;;;5091510;28;20032;-79
2023/07/18 09:50:12;;;;;;;12.68;2.75;;;21.40;99.90;;;;;;5083837;28;20037;-78
2023/07/18 09:52:47;;;;;;;7.13;2.50;;;21.40;99.90;;;;;;5091231;28;21206;-79
2023/07/18 09:55:14;;;;;;;6.43;2.40;;;21.40;99.90;;;;;;5075350;28;20054;-78
2023/07/18 09:57:41;;;;;;;7.53;2.63;;;21.60;99.90;;;;;;5090560;28;20067;-81
2023/07/18 10:00:10;;;;;;;8.35;2.45;;;21.80;99.90;;;;;;5097869;28;20282;-80
2023/07/18 10:02:36;;;;;;;6.63;2.75;;;22.00;99.90;;;;;;5091895;28;20069;-79
2023/07/18 10:05:04;;;;;;;8.15;2.90;;;22.20;99.90;;;;;;5087843;28;20575;-78
2023/07/18 10:07:32;;;;;;;7.57;2.53;;;22.50;99.90;;;;;;5094087;28;20048;-79
2023/07/18 10:09:59;;;;;;;5.97;2.50;;;22.70;99.90;;;;;;5090954;28;20047;-79
2023/07/18 10:12:24;;;;;;;6.90;2.63;;;22.90;99.90;;;;;;5094511;28;20089;-80
2023/07/18 10:14:56;;;;;;;9.38;2.70;;;22.80;99.90;;;;;;5094483;28;20071;-79
2023/07/18 10:17:36;;;;;;;8.23;2.55;;;22.90;99.90;;;;;;5089760;28;20051;-81
2023/07/18 10:20:10;;;;;;;8.93;2.35;;;23.00;99.90;;;;;;5095988;28;20393;-80
2023/07/18 10:22:36;;;;;;;11.10;2.67;;;23.10;99.90;;;;;;5088189;28;20075;-79
2023/07/18 10:25:06;;;;;;;5.47;2.30;;;23.10;99.90;;;;;;5097635;28;20036;-80
2023/07/18 10:27:36;;;;;;;7.20;2.17;;;23.00;99.90;;;;;;5095012;28;20032;-80
2023/07/18 10:30:04;;;;;;;7.00;2.30;;;23.20;99.90;;;;;;5089465;28;20439;-80
2023/07/18 10:32:31;;;;;;;5.78;2.13;;;23.40;99.90;;;;;;5101466;28;20055;-80
2023/07/18 10:35:00;;;;;;;6.28;2.20;;;23.60;99.90;;;;;;5096959;28;20461;-80
2023/07/18 10:37:27;;;;;;;7.85;2.03;;;23.80;99.90;;;;;;5102094;28;20040;-82
2023/07/18 10:39:55;;;;;;;8.27;2.50;;;24.10;99.90;;;;;;5082223;28;20040;-82
2023/07/18 10:42:26;;;;;;;5.68;2.20;;;24.00;99.90;;;;;;5101351;28;20077;-84
2023/07/18 10:45:01;;;;;;;7.03;2.05;;;24.00;99.90;;;;;;5109661;28;20045;-82
2023/07/18 10:47:27;;;;;;;6.45;2.30;;;24.10;99.90;;;;;;5106928;28;20047;-82
2023/07/18 10:49:54;;;;;;;7.45;2.30;;;24.20;99.90;;;;;;5098801;28;20119;-84
2023/07/18 10:52:21;;;;;;;7.82;2.17;;;24.30;99.90;;;;;;5105976;28;20075;-87
2023/07/18 10:54:54;;;;;;;7.75;2.25;;;24.50;99.90;;;;;;5107658;28;20078;-79
2023/07/18 10:57:28;;;;;;;6.57;2.28;;;24.30;99.90;;;;;;5106865;28;20060;-84
2023/07/18 10:59:54;;;;;;;7.97;1.92;;;24.10;99.90;;;;;;5118146;28;20028;-81
2023/07/18 11:02:21;;;;;;;5.57;2.10;;;24.00;99.90;;;;;;5113159;28;20115;-81
2023/07/18 11:04:47;;;;;;;6.03;1.92;;;24.00;99.90;;;;;;5108702;28;20031;-81
2023/07/18 11:07:13;;;;;;;6.38;2.00;;;23.90;99.90;;;;;;5117442;28;20071;-82
2023/07/18 11:09:40;;;;;;;8.00;1.95;;;23.90;99.90;;;;;;5107290;28;20051;-82
2023/07/18 11:12:07;;;;;;;4.72;1.80;;;24.20;99.90;;;;;;5116808;28;20048;-81
2023/07/18 11:14:41;;;;;;;5.50;2.10;;;24.40;99.90;;;;;;5097280;28;20040;-80
2023/07/18 11:17:20;;;;;;;6.53;1.92;;;24.50;99.90;;;;;;5106841;28;20247;-82
2023/07/18 11:19:49;;;;;;;8.63;1.90;;;24.30;99.90;;;;;;5090747;28;20044;-80
2023/07/18 11:22:15;;;;;;;5.25;1.88;;;24.40;99.90;;;;;;5079806;28;20111;-82
2023/07/18 11:24:43;;;;;;;5.43;2.00;;;24.50;99.90;;;;;;5096766;28;20093;-80
2023/07/18 11:27:20;;;;;;;5.20;1.70;;;24.40;99.90;;;;;;5089583;28;20028;-81
2023/07/18 11:29:54;;;;;;;5.75;1.90;;;24.20;99.90;;;;;;5124419;28;20070;-80
2023/07/18 11:32:41;;;;;;;4.78;1.90;;;24.00;99.90;;;;;;5105984;28;20036;-80
2023/07/18 11:35:12;;;;;;;4.93;1.70;;;23.80;99.90;;;;;;5104176;28;20047;-80
2023/07/18 11:37:41;;;;;;;7.13;2.00;;;23.70;99.90;;;;;;5105151;28;20105;-80
2023/07/18 11:40:08;;;;;;;6.45;2.20;;;23.60;99.90;;;;;;5100799;28;20052;-81
2023/07/18 11:42:47;;;;;;;6.05;1.88;;;23.40;99.90;;;;;;5091891;28;20617;-80
2023/07/18 11:45:14;;;;;;;5.65;1.88;;;23.30;99.90;;;;;;5087754;28;20045;-80
2023/07/18 11:47:50;;;;;;;6.57;2.15;;;23.30;99.90;;;;;;5097557;28;20055;-80
2023/07/18 11:50:16;;;;;;;6.05;2.15;;;23.10;99.90;;;;;;5084176;28;20068;-80
2023/07/18 11:52:46;;;;;;;7.78;2.20;;;23.00;99.90;;;;;;5081096;28;20068;-79
2023/07/18 11:55:12;;;;;;;5.18;2.13;;;23.00;99.90;;;;;;5073639;28;20067;-80
2023/07/18 11:57:37;;;;;;;6.95;2.15;;;22.90;99.90;;;;;;5082437;28;20396;-78
2023/07/18 12:00:04;;;;;;;6.47;2.28;;;22.90;99.90;;;;;;5083737;28;20032;-78
2023/07/18 12:02:30;;;;;;;9.10;2.38;;;22.90;99.90;;;;;;5067261;28;20044;-79
2023/07/18 12:04:55;;;;;;;6.75;2.25;;;22.90;99.90;;;;;;5075580;28;20105;-80
2023/07/18 12:07:21;;;;;;;7.07;1.98;;;23.00;99.90;;;;;;5087524;28;20036;-80
2023/07/18 12:09:46;;;;;;;5.70;2.08;;;23.00;99.90;;;;;;5087338;28;20090;-80
2023/07/18 12:12:12;;;;;;;5.93;1.80;;;23.00;99.90;;;;;;5082408;28;20046;-79
2023/07/18 12:14:37;;;;;;;7.32;1.63;;;23.00;99.90;;;;;;5089066;28;20036;-79
2023/07/18 12:17:03;;;;;;;6.55;2.00;;;23.10;99.90;;;;;;5096228;28;20032;-79
2023/07/18 12:19:29;;;;;;;4.90;1.40;;;23.20;99.90;;;;;;5076567;28;20032;-79
2023/07/18 12:21:54;;;;;;;6.50;1.88;;;23.20;99.90;;;;;;5078196;28;20044;-79
2023/07/18 12:24:20;;;;;;;5.43;1.98;;;23.10;99.90;;;;;;5092973;28;20040;-81
2023/07/18 12:26:45;;;;;;;4.13;1.40;;;23.20;99.90;;;;;;5081157;28;20048;-78
2023/07/18 12:29:15;;;;;;;4.75;1.60;;;23.30;99.90;;;;;;5078954;28;20123;-78
2023/07/18 12:31:46;;;;;;;4.22;1.73;;;23.30;99.90;;;;;;5063600;28;20035;-79
2023/07/18 12:34:11;;;;;;;5.25;1.67;;;23.50;99.90;;;;;;5075125;28;20043;-79
2023/07/18 12:36:38;;;;;;;4.93;1.42;;;23.90;99.90;;;;;;5091626;28;20040;-81
2023/07/18 12:39:03;;;;;;;3.50;1.40;;;24.10;99.90;;;;;;5096828;28;20083;-80